createdAt,value
2022-08-23T00:00:13.286Z,27.40
2022-08-23T00:02:43.445Z,27.40
2022-08-23T00:05:11.790Z,27.40
2022-08-23T00:07:41.797Z,27.40
2022-08-23T00:10:13.167Z,27.30
2022-08-23T00:12:43.869Z,27.30
2022-08-23T00:15:15.435Z,27.30
2022-08-23T00:17:43.797Z,27.30
2022-08-23T00:20:15.426Z,27.30
2022-08-23T00:22:44.064Z,27.30
2022-08-23T00:25:14.520Z,27.30
2022-08-23T00:27:44.540Z,27.30
2022-08-23T00:30:14.165Z,27.30
2022-08-23T00:32:43.762Z,27.30
2022-08-23T00:35:14.286Z,27.30
2022-08-23T00:38:31.913Z,27.20
2022-08-23T00:40:44.559Z,27.20
2022-08-23T00:43:35.019Z,27.20
2022-08-23T00:46:31.494Z,27.20
2022-08-23T00:49:02.013Z,27.20
2022-08-23T00:51:52.188Z,27.20
2022-08-23T00:54:23.915Z,27.20
2022-08-23T00:56:53.496Z,27.20
2022-08-23T00:59:24.266Z,27.20
2022-08-23T01:01:52.833Z,27.20
2022-08-23T01:04:21.531Z,27.10
2022-08-23T01:06:55.313Z,27.10
2022-08-23T01:09:23.911Z,27.10
2022-08-23T01:11:57.354Z,27.10
2022-08-23T01:14:34.226Z,27.10
2022-08-23T01:17:06.504Z,27.10
2022-08-23T01:19:37.340Z,27.10
2022-08-23T01:22:11.128Z,27.10
2022-08-23T01:25:06.471Z,27.10
2022-08-23T01:27:31.560Z,27.10
2022-08-23T01:30:01.501Z,27.10
2022-08-23T01:32:33.029Z,27.10
2022-08-23T01:35:01.328Z,27.00
2022-08-23T01:37:29.906Z,27.00
2022-08-23T01:39:59.942Z,27.00
2022-08-23T01:42:28.516Z,27.00
2022-08-23T01:44:56.774Z,27.00
2022-08-23T01:47:25.781Z,27.00
2022-08-23T01:49:55.138Z,27.00
2022-08-23T01:52:23.289Z,26.90
2022-08-23T01:54:51.825Z,26.90
2022-08-23T01:57:21.799Z,26.90
2022-08-23T01:59:50.107Z,26.90
2022-08-23T02:02:18.293Z,26.90
2022-08-23T02:04:46.788Z,26.90
2022-08-23T02:07:14.999Z,26.90
2022-08-23T02:09:43.445Z,26.90
2022-08-23T02:12:12.142Z,26.90
2022-08-23T02:14:43.998Z,26.90
2022-08-23T02:17:20.404Z,26.80
2022-08-23T02:19:48.632Z,26.80
2022-08-23T02:22:16.832Z,26.80
2022-08-23T02:24:47.248Z,26.80
2022-08-23T02:27:19.660Z,26.80
2022-08-23T02:29:50.143Z,26.80
2022-08-23T02:32:21.187Z,26.80
2022-08-23T02:35:04.398Z,26.80
2022-08-23T02:37:34.437Z,26.80
2022-08-23T02:40:03.731Z,26.70
2022-08-23T02:42:33.260Z,26.70
2022-08-23T02:45:04.652Z,26.70
2022-08-23T02:47:36.740Z,26.70
2022-08-23T02:50:22.485Z,26.70
2022-08-23T02:52:50.848Z,26.70
2022-08-23T02:55:19.175Z,26.70
2022-08-23T02:57:47.711Z,26.70
2022-08-23T03:00:18.913Z,26.70
2022-08-23T03:02:47.638Z,26.70
2022-08-23T03:05:16.759Z,26.60
2022-08-23T03:07:45.913Z,26.60
2022-08-23T03:10:14.971Z,26.60
2022-08-23T03:12:48.534Z,26.60
2022-08-23T03:15:18.410Z,26.60
2022-08-23T03:17:46.617Z,26.60
2022-08-23T03:20:14.923Z,26.60
2022-08-23T03:22:49.026Z,26.60
2022-08-23T03:25:23.986Z,26.60
2022-08-23T03:28:05.652Z,26.50
2022-08-23T03:30:36.994Z,26.50
2022-08-23T03:33:06.758Z,26.50
2022-08-23T03:35:35.127Z,26.60
2022-08-23T03:38:04.704Z,26.50
2022-08-23T03:40:33.116Z,26.50
2022-08-23T03:43:02.382Z,26.50
2022-08-23T03:45:31.741Z,26.60
2022-08-23T03:48:01.526Z,26.60
2022-08-23T03:50:33.179Z,26.60
2022-08-23T03:53:01.484Z,26.60
2022-08-23T03:55:29.638Z,26.60
2022-08-23T03:57:58.572Z,26.60
2022-08-23T04:00:26.840Z,26.60
2022-08-23T04:02:55.792Z,26.60
2022-08-23T04:05:26.491Z,26.60
2022-08-23T04:08:00.849Z,26.60
2022-08-23T04:10:29.404Z,26.60
2022-08-23T04:12:57.925Z,26.60
2022-08-23T04:15:26.136Z,26.60
2022-08-23T04:17:54.291Z,26.60
2022-08-23T04:20:25.085Z,26.60
2022-08-23T04:22:59.437Z,26.60
2022-08-23T04:25:33.711Z,26.60
2022-08-23T04:28:05.200Z,26.60
2022-08-23T04:30:35.048Z,26.60
2022-08-23T04:33:09.870Z,26.60
2022-08-23T04:35:41.391Z,26.60
2022-08-23T04:38:24.630Z,26.60
2022-08-23T04:41:12.689Z,26.60
2022-08-23T04:43:43.950Z,26.60
2022-08-23T04:46:16.063Z,26.60
2022-08-23T04:48:47.077Z,26.60
2022-08-23T04:51:16.867Z,26.60
2022-08-23T04:53:46.421Z,26.60
2022-08-23T04:56:35.391Z,26.60
2022-08-23T04:59:04.235Z,26.60
2022-08-23T05:01:34.294Z,26.60
2022-08-23T05:04:02.792Z,26.60
2022-08-23T05:06:32.930Z,26.60
2022-08-23T05:09:02.727Z,26.60
2022-08-23T05:11:33.770Z,26.60
2022-08-23T05:14:02.131Z,26.60
2022-08-23T05:16:30.988Z,26.60
2022-08-23T05:19:06.963Z,26.60
2022-08-23T05:21:41.144Z,26.60
2022-08-23T05:24:13.705Z,26.60
2022-08-23T05:26:43.707Z,26.60
2022-08-23T05:29:15.224Z,26.60
2022-08-23T05:31:50.586Z,26.60
2022-08-23T05:34:22.714Z,26.60
2022-08-23T05:36:57.645Z,26.60
2022-08-23T05:39:36.866Z,26.60
2022-08-23T05:42:09.169Z,26.60
2022-08-23T05:44:38.347Z,26.60
2022-08-23T05:47:11.723Z,26.60
2022-08-23T05:49:58.764Z,26.60
2022-08-23T05:52:28.905Z,26.60
2022-08-23T05:54:58.621Z,26.60
2022-08-23T05:57:47.063Z,26.50
2022-08-23T06:00:15.963Z,26.60
2022-08-23T06:02:58.215Z,26.60
2022-08-23T06:05:26.516Z,26.60
2022-08-23T06:07:56.021Z,26.60
2022-08-23T06:10:27.039Z,26.60
2022-08-23T06:13:03.388Z,26.60
2022-08-23T06:15:32.319Z,26.60
2022-08-23T06:18:00.844Z,26.60
2022-08-23T06:20:29.364Z,26.60
2022-08-23T06:23:08.843Z,26.60
2022-08-23T06:25:42.007Z,26.60
2022-08-23T06:28:15.647Z,26.60
2022-08-23T06:30:44.336Z,26.60
2022-08-23T06:33:23.271Z,26.60
2022-08-23T06:36:12.120Z,26.60
2022-08-23T06:39:11.365Z,26.60
2022-08-23T06:45:04.578Z,26.60
2022-08-23T06:47:41.323Z,26.60
2022-08-23T06:50:10.677Z,26.60
2022-08-23T06:53:07.038Z,26.60
2022-08-23T06:55:57.018Z,26.60
2022-08-23T06:58:30.155Z,26.60
2022-08-23T07:01:45.329Z,26.60
2022-08-23T07:04:35.629Z,26.60
2022-08-23T07:07:37.659Z,26.60
2022-08-23T07:10:12.918Z,26.60
2022-08-23T07:12:42.546Z,26.60
2022-08-23T07:15:13.534Z,26.60
2022-08-23T07:17:45.052Z,26.60
2022-08-23T07:20:13.710Z,26.60
2022-08-23T07:22:44.732Z,26.70
2022-08-23T07:25:13.846Z,26.70
2022-08-23T07:27:45.173Z,26.70
2022-08-23T07:30:19.065Z,26.70
2022-08-23T07:32:47.358Z,26.70
2022-08-23T07:35:22.249Z,26.70
2022-08-23T07:37:52.527Z,26.70
2022-08-23T07:40:21.154Z,26.70
2022-08-23T07:42:53.782Z,26.70
2022-08-23T07:45:23.980Z,26.70
2022-08-23T07:47:55.386Z,26.70
2022-08-23T07:50:30.267Z,26.70
2022-08-23T07:53:01.126Z,26.70
2022-08-23T07:55:29.976Z,26.70
2022-08-23T07:58:14.050Z,26.70
2022-08-23T08:00:58.210Z,26.70
2022-08-23T08:03:44.394Z,26.70
2022-08-23T08:06:25.547Z,26.80
2022-08-23T08:08:54.487Z,26.70
2022-08-23T08:11:25.324Z,26.80
2022-08-23T08:13:55.950Z,26.80
2022-08-23T08:16:28.682Z,26.80
2022-08-23T08:18:59.393Z,26.80
2022-08-23T08:21:53.275Z,26.80
2022-08-23T08:24:29.736Z,26.80
2022-08-23T08:27:05.942Z,26.80
2022-08-23T08:29:34.887Z,26.80
2022-08-23T08:32:04.719Z,26.80
2022-08-23T08:34:33.380Z,26.80
2022-08-23T08:37:02.713Z,26.80
2022-08-23T08:39:33.770Z,26.80
2022-08-23T08:42:27.281Z,26.80
2022-08-23T08:44:59.924Z,26.80
2022-08-23T08:47:49.931Z,26.80
2022-08-23T08:50:24.081Z,26.80
2022-08-23T08:53:01.930Z,26.80
2022-08-23T08:55:54.578Z,26.80
2022-08-23T08:58:28.918Z,26.90
2022-08-23T09:00:58.223Z,26.90
2022-08-23T09:03:34.085Z,26.90
2022-08-23T09:06:15.917Z,26.90
2022-08-23T09:08:58.705Z,26.90
2022-08-23T09:11:37.728Z,26.90
2022-08-23T09:14:28.322Z,26.90
2022-08-23T09:17:05.679Z,26.90
2022-08-23T09:19:38.788Z,26.90
2022-08-23T09:22:13.631Z,26.90
2022-08-23T09:24:42.447Z,26.90
2022-08-23T09:27:16.876Z,26.90
2022-08-23T09:29:54.362Z,26.90
2022-08-23T09:32:33.185Z,26.90
2022-08-23T09:35:12.415Z,26.90
2022-08-23T09:37:58.947Z,26.90
2022-08-23T09:40:35.013Z,26.90
2022-08-23T09:43:13.771Z,26.90
2022-08-23T09:45:53.443Z,26.90
2022-08-23T09:48:38.926Z,26.90
2022-08-23T09:51:19.672Z,27.00
2022-08-23T09:53:51.373Z,27.00
2022-08-23T09:56:26.351Z,27.00
2022-08-23T09:58:55.832Z,27.00
2022-08-23T10:01:39.457Z,27.00
2022-08-23T10:04:16.994Z,27.00
2022-08-23T10:06:48.046Z,27.00
2022-08-23T10:09:25.655Z,27.00
2022-08-23T10:11:54.838Z,27.00
2022-08-23T10:14:28.792Z,27.00
2022-08-23T10:17:08.139Z,27.00
2022-08-23T10:19:44.362Z,27.00
2022-08-23T10:22:20.771Z,27.00
2022-08-23T10:25:16.173Z,27.00
2022-08-23T10:28:12.884Z,27.00
2022-08-23T10:30:52.754Z,27.10
2022-08-23T10:33:27.718Z,27.10
2022-08-23T10:36:06.971Z,27.10
2022-08-23T10:38:43.745Z,27.10
2022-08-23T10:41:36.999Z,27.10
2022-08-23T10:44:23.840Z,27.10
2022-08-23T10:47:03.402Z,27.10
2022-08-23T10:49:34.553Z,27.20
2022-08-23T10:52:07.984Z,27.20
2022-08-23T10:54:46.841Z,27.20
2022-08-23T10:57:21.766Z,27.20
2022-08-23T10:59:53.739Z,27.20
2022-08-23T11:02:33.111Z,27.20
2022-08-23T11:05:22.737Z,27.20
2022-08-23T11:08:02.855Z,27.30
2022-08-23T11:10:56.118Z,27.30
2022-08-23T11:13:30.028Z,27.30
2022-08-23T11:16:00.896Z,27.30
2022-08-23T11:18:41.453Z,27.30
2022-08-23T11:21:48.659Z,27.30
2022-08-23T11:24:50.239Z,27.40
2022-08-23T11:27:40.472Z,27.40
2022-08-23T11:30:45.330Z,27.40
2022-08-23T11:33:21.195Z,27.40
2022-08-23T11:35:52.566Z,27.40
2022-08-23T11:38:55.652Z,27.40
2022-08-23T11:41:25.722Z,27.40
2022-08-23T11:44:24.240Z,27.40
2022-08-23T11:47:01.369Z,27.40
2022-08-23T11:50:07.501Z,27.40
2022-08-23T11:53:07.357Z,27.40
2022-08-23T11:56:04.341Z,27.50
2022-08-23T11:58:53.650Z,27.50
2022-08-23T12:01:33.079Z,27.40
2022-08-23T12:04:09.828Z,27.40
2022-08-23T12:06:51.126Z,27.40
2022-08-23T12:09:56.038Z,27.40
2022-08-23T12:12:40.063Z,27.50
2022-08-23T12:15:13.674Z,27.50
2022-08-23T12:18:14.132Z,27.60
2022-08-23T12:20:43.251Z,27.60
2022-08-23T12:23:20.880Z,27.70
2022-08-23T12:26:22.605Z,27.70
2022-08-23T12:28:58.840Z,27.70
2022-08-23T12:31:34.822Z,27.80
2022-08-23T12:34:16.623Z,27.80
2022-08-23T12:36:51.932Z,27.80
2022-08-23T12:39:34.491Z,27.80
2022-08-23T12:42:10.683Z,27.80
2022-08-23T12:44:39.154Z,27.80
2022-08-23T12:47:16.745Z,27.90
2022-08-23T12:49:56.329Z,27.90
2022-08-23T12:52:28.085Z,27.90
2022-08-23T12:54:58.026Z,27.80
2022-08-23T12:57:35.206Z,27.80
2022-08-23T13:00:18.372Z,27.80
2022-08-23T13:02:52.295Z,27.80
2022-08-23T13:05:38.108Z,27.80
2022-08-23T13:08:10.216Z,27.80
2022-08-23T13:10:41.239Z,27.80
2022-08-23T13:13:12.094Z,27.80
2022-08-23T13:15:49.912Z,27.80
2022-08-23T13:18:30.138Z,27.80
2022-08-23T13:21:18.567Z,27.80
2022-08-23T13:23:47.950Z,27.90
2022-08-23T13:26:37.965Z,27.80
2022-08-23T13:29:21.423Z,27.90
2022-08-23T13:31:59.298Z,27.90
2022-08-23T13:34:37.219Z,27.90
2022-08-23T13:37:18.977Z,27.90
2022-08-23T13:39:49.879Z,27.90
2022-08-23T13:42:28.281Z,27.90
2022-08-23T13:44:56.550Z,27.90
2022-08-23T13:47:27.758Z,27.90
2022-08-23T13:49:56.726Z,27.90
2022-08-23T13:53:03.131Z,27.90
2022-08-23T13:55:16.830Z,27.90
2022-08-23T13:57:45.278Z,27.90
2022-08-23T14:00:19.311Z,28.00
2022-08-23T14:02:49.120Z,28.00
2022-08-23T14:05:19.282Z,28.00
2022-08-23T14:07:52.829Z,28.00
2022-08-23T14:10:22.420Z,28.00
2022-08-23T14:12:53.785Z,28.00
2022-08-23T14:15:54.586Z,28.00
2022-08-23T14:18:11.465Z,28.10
2022-08-23T14:20:47.196Z,28.10
2022-08-23T14:23:16.809Z,28.10
2022-08-23T14:25:45.825Z,28.10
2022-08-23T14:28:14.111Z,28.10
2022-08-23T14:30:42.371Z,28.10
2022-08-23T14:33:10.589Z,28.10
2022-08-23T14:35:38.803Z,28.20
2022-08-23T14:38:06.990Z,28.20
2022-08-23T14:40:37.774Z,28.20
2022-08-23T14:43:06.565Z,28.20
2022-08-23T14:45:34.973Z,28.20
2022-08-23T14:48:03.526Z,28.20
2022-08-23T14:50:31.856Z,28.20
2022-08-23T14:53:03.493Z,28.20
2022-08-23T14:55:31.803Z,28.20
2022-08-23T14:58:01.377Z,28.20
2022-08-23T15:00:29.712Z,28.20
2022-08-23T15:02:58.219Z,28.20
2022-08-23T15:05:26.492Z,28.30
2022-08-23T15:07:54.805Z,28.20
2022-08-23T15:13:21.783Z,28.30
2022-08-23T15:15:54.934Z,28.30
2022-08-23T15:18:23.174Z,28.30
2022-08-23T15:20:52.368Z,28.30
2022-08-23T15:23:21.578Z,28.30
2022-08-23T15:25:49.953Z,28.30
2022-08-23T15:28:22.646Z,28.30
2022-08-23T15:30:51.554Z,28.30
2022-08-23T15:33:26.774Z,28.30
2022-08-23T15:35:55.745Z,28.30
2022-08-23T15:38:26.649Z,28.30
2022-08-23T15:40:56.066Z,28.30
2022-08-23T15:43:26.173Z,28.30
2022-08-23T15:46:08.528Z,28.30
2022-08-23T15:48:42.672Z,28.30
2022-08-23T15:51:11.748Z,28.30
2022-08-23T15:53:41.097Z,28.30
2022-08-23T15:56:11.192Z,28.30
2022-08-23T15:58:42.044Z,28.30
2022-08-23T16:01:11.964Z,28.30
2022-08-23T16:03:43.716Z,28.30
2022-08-23T16:06:14.143Z,28.30
2022-08-23T16:08:46.946Z,28.30
2022-08-23T16:11:15.232Z,28.30
2022-08-23T16:13:47.156Z,28.30
2022-08-23T16:16:21.540Z,28.30
2022-08-23T16:18:51.740Z,28.30
2022-08-23T16:21:20.204Z,28.30
2022-08-23T16:23:48.572Z,28.30
2022-08-23T16:26:19.954Z,28.30
2022-08-23T16:28:54.265Z,28.30
2022-08-23T16:31:38.741Z,28.20
2022-08-23T16:34:10.247Z,28.30
2022-08-23T16:36:39.550Z,28.30
2022-08-23T16:39:08.385Z,28.20
2022-08-23T16:41:36.692Z,28.30
2022-08-23T16:44:06.556Z,28.30
2022-08-23T16:46:34.864Z,28.30
2022-08-23T16:49:03.125Z,28.30
2022-08-23T16:51:31.336Z,28.30
2022-08-23T16:54:02.898Z,28.30
2022-08-23T16:56:32.139Z,28.30
2022-08-23T16:59:00.692Z,28.30
2022-08-23T17:01:30.467Z,28.30
2022-08-23T17:03:58.746Z,28.30
2022-08-23T17:06:27.023Z,28.30
2022-08-23T17:08:55.158Z,28.20
2022-08-23T17:11:23.630Z,28.20
2022-08-23T17:13:58.137Z,28.20
2022-08-23T17:16:35.140Z,28.20
2022-08-23T17:19:03.479Z,28.20
2022-08-23T17:21:31.745Z,28.20
2022-08-23T17:24:00.136Z,28.20
2022-08-23T17:26:28.422Z,28.20
2022-08-23T17:28:57.334Z,28.20
2022-08-23T17:31:25.685Z,28.20
2022-08-23T17:33:56.353Z,28.20
2022-08-23T17:36:35.113Z,28.20
2022-08-23T17:39:05.571Z,28.20
2022-08-23T17:41:35.380Z,28.20
2022-08-23T17:44:04.246Z,28.20
2022-08-23T17:46:34.875Z,28.10
2022-08-23T17:49:06.042Z,28.10
2022-08-23T17:51:35.668Z,28.10
2022-08-23T17:54:03.940Z,28.10
2022-08-23T17:56:32.224Z,28.10
2022-08-23T17:59:00.769Z,28.10
2022-08-23T18:01:29.188Z,28.10
2022-08-23T18:03:57.428Z,28.10
2022-08-23T18:06:27.539Z,28.10
2022-08-23T18:08:56.399Z,28.10
2022-08-23T18:11:25.269Z,28.10
2022-08-23T18:13:53.525Z,28.10
2022-08-23T18:16:22.159Z,28.10
2022-08-23T18:18:50.426Z,28.10
2022-08-23T18:21:20.635Z,28.00
2022-08-23T18:23:50.532Z,28.00
2022-08-23T18:26:35.764Z,28.00
2022-08-23T18:29:05.124Z,28.00
2022-08-23T18:31:33.460Z,27.90
2022-08-23T18:34:02.039Z,27.90
2022-08-23T18:36:30.716Z,27.90
2022-08-23T18:39:00.284Z,27.90
2022-08-23T18:41:28.553Z,27.90
2022-08-23T18:43:56.760Z,27.90
2022-08-23T18:46:29.344Z,27.90
2022-08-23T18:49:01.257Z,28.00
2022-08-23T18:51:29.690Z,28.00
2022-08-23T18:53:59.914Z,28.00
2022-08-23T18:56:28.375Z,28.00
2022-08-23T18:58:56.635Z,27.90
2022-08-23T19:01:26.504Z,27.90
2022-08-23T19:03:56.248Z,28.00
2022-08-23T19:06:24.720Z,28.00
2022-08-23T19:08:52.992Z,28.00
2022-08-23T19:11:24.374Z,28.00
2022-08-23T19:13:52.720Z,28.00
2022-08-23T19:16:22.209Z,28.10
2022-08-23T19:18:51.815Z,28.20
2022-08-23T19:21:23.510Z,28.30
2022-08-23T19:23:53.394Z,28.50
2022-08-23T19:26:30.300Z,28.60
2022-08-23T19:28:59.043Z,28.70
2022-08-23T19:31:33.879Z,28.80
2022-08-23T19:34:04.524Z,28.80
2022-08-23T19:36:46.685Z,28.80
2022-08-23T19:39:16.489Z,28.90
2022-08-23T19:41:48.359Z,28.90
2022-08-23T19:44:17.706Z,28.80
2022-08-23T19:46:46.112Z,28.80
2022-08-23T19:49:15.360Z,28.80
2022-08-23T19:51:44.643Z,28.80
2022-08-23T19:54:13.175Z,28.80
2022-08-23T19:56:44.739Z,28.80
2022-08-23T19:59:20.149Z,28.80
2022-08-23T20:01:49.708Z,28.70
2022-08-23T20:04:18.360Z,28.70
2022-08-23T20:06:47.131Z,28.70
2022-08-23T20:09:15.456Z,28.60
2022-08-23T20:11:43.891Z,28.60
2022-08-23T20:14:12.614Z,28.50
2022-08-23T20:16:42.756Z,28.50
2022-08-23T20:19:11.887Z,28.40
2022-08-23T20:21:41.130Z,28.40
2022-08-23T20:24:09.919Z,28.40
2022-08-23T20:26:40.620Z,28.40
2022-08-23T20:29:10.910Z,28.40
2022-08-23T20:31:48.092Z,28.40
2022-08-23T20:34:16.435Z,28.40
2022-08-23T20:36:44.860Z,28.40
2022-08-23T20:39:13.197Z,28.40
2022-08-23T20:41:42.026Z,28.30
2022-08-23T20:44:10.358Z,28.30
2022-08-23T20:46:38.978Z,28.30
2022-08-23T20:49:08.965Z,28.30
2022-08-23T20:51:37.515Z,28.30
2022-08-23T20:54:06.182Z,28.20
2022-08-23T20:56:35.295Z,28.20
2022-08-23T20:59:03.647Z,28.20
2022-08-23T21:01:32.175Z,28.20
2022-08-23T21:04:00.653Z,28.20
2022-08-23T21:06:37.703Z,28.20
2022-08-23T21:09:06.161Z,28.20
2022-08-23T21:11:34.363Z,28.20
2022-08-23T21:14:02.747Z,28.20
2022-08-23T21:16:32.580Z,28.20
2022-08-23T21:19:00.914Z,28.20
2022-08-23T21:21:30.626Z,28.20
2022-08-23T21:23:59.054Z,28.20
2022-08-23T21:26:27.400Z,28.20
2022-08-23T21:28:55.601Z,28.20
2022-08-23T21:31:26.513Z,28.20
2022-08-23T21:33:55.878Z,28.20
2022-08-23T21:36:24.900Z,28.20
2022-08-23T21:38:54.679Z,28.20
2022-08-23T21:41:32.922Z,28.10
2022-08-23T21:44:01.857Z,28.10
2022-08-23T21:46:33.031Z,28.10
2022-08-23T21:49:01.665Z,28.10
2022-08-23T21:51:34.792Z,28.10
2022-08-23T21:54:05.204Z,28.10
2022-08-23T21:56:33.575Z,28.10
2022-08-23T21:59:03.461Z,28.10
2022-08-23T22:01:34.194Z,28.10
2022-08-23T22:04:03.343Z,28.10
2022-08-23T22:06:32.138Z,28.10
2022-08-23T22:09:00.792Z,28.10
2022-08-23T22:11:30.377Z,28.10
2022-08-23T22:13:58.795Z,28.10
2022-08-23T22:16:26.980Z,28.10
2022-08-23T22:18:55.187Z,28.10
2022-08-23T22:21:23.673Z,28.00
2022-08-23T22:23:52.527Z,28.00
2022-08-23T22:26:20.795Z,28.00
2022-08-23T22:28:50.583Z,28.00
2022-08-23T22:31:18.982Z,28.00
2022-08-23T22:33:47.539Z,28.00
2022-08-23T22:36:18.482Z,28.00
2022-08-23T22:38:47.385Z,28.00
2022-08-23T22:41:18.850Z,28.00
2022-08-23T22:43:47.308Z,28.00
2022-08-23T22:46:17.254Z,28.00
2022-08-23T22:48:45.460Z,28.00
2022-08-23T22:51:15.511Z,28.00
2022-08-23T22:53:47.283Z,28.00
2022-08-23T22:56:18.431Z,28.00
2022-08-23T22:58:48.075Z,27.90
2022-08-23T23:01:24.382Z,28.00
2022-08-23T23:03:54.367Z,27.90
2022-08-23T23:06:23.488Z,27.90
2022-08-23T23:08:52.395Z,27.90
2022-08-23T23:11:22.151Z,27.90
2022-08-23T23:13:51.219Z,27.90
2022-08-23T23:16:23.925Z,27.90
2022-08-23T23:19:06.750Z,27.90
2022-08-23T23:21:36.568Z,27.90
2022-08-23T23:24:06.043Z,27.90
2022-08-23T23:26:34.303Z,27.90
2022-08-23T23:29:02.589Z,27.80
2022-08-23T23:31:32.453Z,27.80
2022-08-23T23:34:00.656Z,27.80
2022-08-23T23:36:28.934Z,27.80
2022-08-23T23:38:57.199Z,27.80
2022-08-23T23:41:25.486Z,27.80
2022-08-23T23:43:53.646Z,27.80
2022-08-23T23:46:22.147Z,27.80
2022-08-23T23:48:52.286Z,27.80
2022-08-23T23:51:23.594Z,27.80
2022-08-23T23:53:52.732Z,27.80
2022-08-23T23:56:22.856Z,27.80
2022-08-23T23:58:54.182Z,27.80
